Time;durP1;ratioP1;P1;durP2;ratioP2;P2;SDS_P1;SDS_P2;PMS_P1;PMS_P2;Temp;Humidity;BMP_temperature;BMP_pressure;BME280_temperature;BME280_humidity;BME280_pressure;Samples;Min_cycle;Max_cycle;Signal;HPM_P1;HPM_P2
2022/01/02 00:01:20;;;;;;;6.30;2.33;;;;;;;4.02;82.27;100909.41;5086349;22;20239;-78
2022/01/02 00:03:51;;;;;;;3.83;2.23;;;;;;;4.04;82.14;100902.25;5121873;22;20228;-78
2022/01/02 00:06:24;;;;;;;6.00;2.23;;;;;;;4.12;81.95;100896.53;5092931;22;21374;-78
2022/01/02 00:09:02;;;;;;;4.53;2.43;;;;;;;4.17;81.61;100903.22;5086929;22;20204;-78
2022/01/02 00:11:29;;;;;;;5.57;2.40;;;;;;;4.19;80.87;100892.59;5104874;22;20275;-76
2022/01/02 00:14:05;;;;;;;5.33;2.43;;;;;;;4.20;81.50;100900.41;5100943;22;20210;-78
2022/01/02 00:16:35;;;;;;;6.13;2.47;;;;;;;4.27;80.56;100903.53;5115853;22;22038;-77
2022/01/02 00:19:07;;;;;;;4.70;2.47;;;;;;;4.15;79.75;100899.84;5101414;22;20728;-77
2022/01/02 00:21:40;;;;;;;6.20;2.93;;;;;;;3.78;82.19;100906.44;5105655;22;20198;-79
2022/01/02 00:24:12;;;;;;;6.30;3.03;;;;;;;3.90;82.41;100903.09;5093048;22;20239;-78
2022/01/02 00:26:44;;;;;;;7.93;2.80;;;;;;;3.96;81.48;100901.88;5115166;22;20209;-81
2022/01/02 00:29:12;;;;;;;6.37;3.23;;;;;;;3.79;82.44;100895.84;5102360;22;21620;-79
2022/01/02 00:31:39;;;;;;;5.30;3.27;;;;;;;3.81;82.73;100896.56;5095400;22;21113;-78
2022/01/02 00:34:07;;;;;;;6.20;3.00;;;;;;;3.71;84.23;100897.22;5109918;22;20327;-78
2022/01/02 00:36:34;;;;;;;6.67;3.40;;;;;;;3.76;84.25;100903.88;5105196;22;20206;-79
2022/01/02 00:39:03;;;;;;;5.37;3.50;;;;;;;3.78;84.74;100899.38;5104381;22;20217;-78
2022/01/02 00:41:50;;;;;;;7.47;3.80;;;;;;;3.72;84.88;100893.63;5096256;22;20233;-78
2022/01/02 00:44:32;;;;;;;6.27;3.37;;;;;;;3.51;86.10;100893.09;5110444;22;20313;-79
2022/01/02 00:47:11;;;;;;;8.20;3.70;;;;;;;3.70;85.62;100884.97;5124231;22;20227;-78
2022/01/02 00:49:40;;;;;;;6.17;3.30;;;;;;;3.64;85.54;100880.94;5112328;22;20830;-79
2022/01/02 00:52:12;;;;;;;7.30;3.47;;;;;;;3.67;84.83;100886.00;5096155;22;21101;-78
2022/01/02 00:54:43;;;;;;;7.43;3.50;;;;;;;3.77;84.12;100887.19;5091021;22;20206;-78
2022/01/02 00:57:15;;;;;;;9.17;4.20;;;;;;;3.72;84.85;100891.88;5123752;22;22019;-79
2022/01/02 00:59:57;;;;;;;7.83;4.20;;;;;;;3.79;84.01;100882.66;5076655;23;22306;-78
2022/01/02 01:02:28;;;;;;;8.43;4.30;;;;;;;3.83;84.25;100885.13;5100608;22;21701;-77
2022/01/02 01:04:56;;;;;;;8.33;4.20;;;;;;;3.85;83.96;100873.56;5113001;22;21175;-78
2022/01/02 01:07:23;;;;;;;10.90;4.23;;;;;;;3.83;84.39;100869.31;5107895;22;20507;-78
2022/01/02 01:09:53;;;;;;;9.27;4.50;;;;;;;3.84;84.04;100865.72;5101970;22;21399;-77
2022/01/02 01:12:19;;;;;;;12.33;4.77;;;;;;;3.76;83.94;100864.41;5121876;22;20209;-77
2022/01/02 01:14:47;;;;;;;8.03;4.17;;;;;;;3.76;83.78;100869.66;5116819;22;21806;-78
2022/01/02 01:17:15;;;;;;;11.83;4.47;;;;;;;3.68;83.98;100879.81;5124671;22;21081;-80
2022/01/02 01:19:42;;;;;;;7.50;4.00;;;;;;;3.59;85.20;100870.66;5099020;22;20382;-77
2022/01/02 01:22:09;;;;;;;8.00;4.27;;;;;;;3.64;85.04;100859.03;5125338;22;22073;-77
2022/01/02 01:24:36;;;;;;;8.73;4.27;;;;;;;3.63;85.42;100852.06;5118860;22;20741;-78
2022/01/02 01:27:05;;;;;;;9.07;3.93;;;;;;;3.63;85.82;100852.94;5118692;22;20210;-76
2022/01/02 01:29:34;;;;;;;8.30;4.03;;;;;;;3.68;85.14;100845.59;5096068;22;21953;-79
2022/01/02 01:32:05;;;;;;;8.03;3.50;;;;;;;3.68;85.27;100848.22;5101676;22;22530;-77
2022/01/02 01:34:34;;;;;;;6.70;3.77;;;;;;;3.63;85.76;100849.44;5123096;22;23362;-76
2022/01/02 01:37:01;;;;;;;9.03;4.00;;;;;;;3.57;86.12;100842.75;5090428;22;20256;-77
2022/01/02 01:39:27;;;;;;;6.13;3.33;;;;;;;3.56;86.53;100827.91;5143801;22;20208;-78
2022/01/02 01:41:56;;;;;;;7.93;3.57;;;;;;;3.46;87.87;100821.47;5096634;22;21156;-77
2022/01/02 01:44:38;;;;;;;7.13;3.17;;;;;;;3.25;88.65;100808.63;5125731;22;20201;-77
2022/01/02 01:47:04;;;;;;;7.70;3.17;;;;;;;3.22;89.76;100806.19;5121233;22;26075;-78
2022/01/02 01:49:31;;;;;;;7.10;3.67;;;;;;;3.30;89.95;100811.88;5110804;22;22227;-78
2022/01/02 01:51:58;;;;;;;6.07;2.77;;;;;;;3.30;90.13;100806.59;5098683;22;20206;-79
2022/01/02 01:54:25;;;;;;;8.10;3.43;;;;;;;3.25;90.64;100811.25;5112973;22;20577;-76
2022/01/02 01:56:52;;;;;;;7.60;3.67;;;;;;;3.29;90.69;100798.78;5141577;22;21436;-78
2022/01/02 01:59:20;;;;;;;7.93;3.80;;;;;;;3.28;90.90;100803.22;5111283;22;25519;-78
2022/01/02 02:01:47;;;;;;;7.03;3.40;;;;;;;3.31;91.47;100795.13;5108796;22;20217;-79
2022/01/02 02:04:15;;;;;;;8.03;3.60;;;;;;;3.29;91.73;100794.38;5121238;22;21436;-79
2022/01/02 02:06:42;;;;;;;7.60;4.23;;;;;;;3.42;91.79;100798.91;5119097;22;21421;-78
2022/01/02 02:09:09;;;;;;;7.40;3.97;;;;;;;3.43;90.79;100787.47;5106514;22;20210;-76
2022/01/02 02:11:37;;;;;;;7.87;3.77;;;;;;;3.36;91.77;100786.97;5092552;22;20958;-79
2022/01/02 02:14:06;;;;;;;8.67;3.93;;;;;;;3.38;92.03;100783.31;5131295;22;22494;-76
2022/01/02 02:16:34;;;;;;;10.40;4.00;;;;;;;3.37;91.88;100781.63;5114834;22;20292;-77
2022/01/02 02:19:02;;;;;;;8.80;4.03;;;;;;;3.34;91.94;100779.16;5096072;22;20208;-76
2022/01/02 02:21:36;;;;;;;8.87;4.10;;;;;;;3.34;91.76;100771.28;5101690;22;20206;-78
2022/01/02 02:24:07;;;;;;;9.57;4.40;;;;;;;3.37;92.21;100768.47;5122416;22;21675;-78
2022/01/02 02:26:36;;;;;;;10.60;4.10;;;;;;;3.28;92.54;100763.75;5132981;22;20201;-78
2022/01/02 02:29:04;;;;;;;9.83;4.00;;;;;;;3.31;93.21;100763.56;5116048;22;20283;-80
2022/01/02 02:31:31;;;;;;;8.87;4.13;;;;;;;3.29;93.17;100760.19;5069501;22;20398;-77
2022/01/02 02:33:57;;;;;;;8.23;4.50;;;;;;;3.34;93.36;100755.50;5109041;22;20307;-76
2022/01/02 02:36:24;;;;;;;10.50;4.90;;;;;;;3.33;93.57;100751.19;5125453;22;20210;-77
2022/01/02 02:38:50;;;;;;;7.33;4.43;;;;;;;3.31;93.75;100752.22;5116908;22;25443;-76
2022/01/02 02:41:17;;;;;;;14.40;5.33;;;;;;;3.29;94.80;100749.66;5085479;22;20202;-79
2022/01/02 02:43:50;;;;;;;14.30;4.87;;;;;;;3.31;94.46;100753.06;5096210;22;20206;-77
2022/01/02 02:49:03;;;;;;;10.40;4.47;;;;;;;3.42;94.18;100755.06;5115758;22;20449;-78
2022/01/02 02:54:02;;;;;;;9.40;4.90;;;;;;;3.34;94.80;100755.50;5101589;22;20205;-77
2022/01/02 02:56:41;;;;;;;12.87;5.03;;;;;;;3.36;95.45;100751.00;5115531;22;20577;-77
2022/01/02 02:59:08;;;;;;;14.20;4.93;;;;;;;3.40;95.51;100753.47;5098480;22;20280;-77
2022/01/02 03:01:35;;;;;;;11.07;4.70;;;;;;;3.32;95.23;100746.84;5098539;22;20212;-80
2022/01/02 03:04:02;;;;;;;12.07;4.80;;;;;;;3.30;95.94;100739.97;5117581;22;20209;-79
2022/01/02 03:06:29;;;;;;;10.93;4.80;;;;;;;3.28;96.19;100737.47;5111266;22;20260;-78
2022/01/02 03:09:02;;;;;;;12.07;5.23;;;;;;;3.27;96.49;100730.50;5095884;22;20272;-77
2022/01/02 03:11:30;;;;;;;11.37;5.47;;;;;;;3.30;96.13;100730.34;5259620;22;20278;-78
2022/01/02 03:13:56;;;;;;;11.40;5.40;;;;;;;3.37;96.63;100733.41;5113158;22;21599;-79
2022/01/02 03:16:23;;;;;;;9.43;4.93;;;;;;;3.38;96.95;100728.06;5095178;22;20214;-77
2022/01/02 03:18:49;;;;;;;11.17;5.60;;;;;;;3.39;96.00;100718.41;5117304;22;20214;-77
2022/01/02 03:21:16;;;;;;;9.93;5.07;;;;;;;3.44;96.29;100715.50;5112238;22;20213;-77
2022/01/02 03:23:43;;;;;;;12.10;5.70;;;;;;;3.42;96.92;100696.31;5117960;22;21038;-77
2022/01/02 03:26:09;;;;;;;12.53;5.03;;;;;;;3.33;96.78;100682.78;5093836;22;20205;-77
2022/01/02 03:28:36;;;;;;;15.53;4.93;;;;;;;3.31;96.90;100687.31;5098270;22;20205;-79
2022/01/02 03:31:03;;;;;;;12.10;5.20;;;;;;;3.37;97.18;100686.06;5094738;22;20201;-79
2022/01/02 03:33:30;;;;;;;10.83;5.00;;;;;;;3.38;97.70;100680.72;5096234;22;20201;-79
2022/01/02 03:35:56;;;;;;;12.63;5.40;;;;;;;3.36;98.06;100682.59;5113478;22;21032;-77
2022/01/02 03:38:23;;;;;;;12.17;5.67;;;;;;;3.32;98.60;100680.25;5131702;22;20352;-77
2022/01/02 03:40:49;;;;;;;11.27;5.50;;;;;;;3.34;98.28;100673.94;5095126;22;21853;-77
2022/01/02 03:43:16;;;;;;;13.67;5.83;;;;;;;3.28;98.87;100674.34;5127461;22;21611;-77
2022/01/02 03:45:43;;;;;;;14.20;6.17;;;;;;;3.22;100.00;100658.91;5111338;22;21561;-77
2022/01/02 03:48:09;;;;;;;17.93;6.23;;;;;;;3.12;100.00;100658.63;5085660;22;20638;-78
2022/01/02 03:50:36;;;;;;;13.43;5.80;;;;;;;3.09;100.00;100652.69;5124494;22;22572;-77
2022/01/02 03:53:03;;;;;;;16.23;6.00;;;;;;;3.11;100.00;100656.09;5117276;22;20213;-77
2022/01/02 03:55:30;;;;;;;16.00;6.17;;;;;;;3.12;100.00;100653.38;5091415;22;21191;-77
2022/01/02 03:57:56;;;;;;;16.07;6.33;;;;;;;3.09;100.00;100650.06;5091388;22;20202;-78
2022/01/02 04:00:23;;;;;;;12.97;6.53;;;;;;;3.12;100.00;100642.03;5119138;22;20202;-76
2022/01/02 04:02:49;;;;;;;20.57;7.30;;;;;;;3.13;100.00;100638.44;5096691;22;20221;-76
2022/01/02 04:05:16;;;;;;;11.03;6.00;;;;;;;3.08;100.00;100619.47;5114814;22;20209;-78
2022/01/02 04:07:43;;;;;;;15.40;7.47;;;;;;;3.12;100.00;100620.97;5103488;22;20278;-77
2022/01/02 04:10:15;;;;;;;19.93;7.57;;;;;;;3.16;100.00;100617.22;5086335;22;22052;-77
2022/01/02 04:12:42;;;;;;;16.33;7.50;;;;;;;3.16;100.00;100618.06;5101369;22;20266;-78
2022/01/02 04:15:10;;;;;;;14.67;7.40;;;;;;;3.18;100.00;100612.72;5113806;22;21246;-76
2022/01/02 04:17:37;;;;;;;14.67;6.53;;;;;;;3.20;100.00;100618.72;5118759;22;21881;-78
2022/01/02 04:20:06;;;;;;;16.03;6.63;;;;;;;3.20;100.00;100612.63;5116144;22;20205;-78
2022/01/02 04:22:33;;;;;;;16.93;6.37;;;;;;;3.15;100.00;100594.50;5111323;22;20210;-77
2022/01/02 04:25:00;;;;;;;14.67;7.00;;;;;;;3.13;100.00;100589.31;5133076;22;20266;-77
2022/01/02 04:27:26;;;;;;;15.17;6.80;;;;;;;3.09;100.00;100571.19;5088628;22;20543;-78
2022/01/02 04:29:53;;;;;;;16.70;7.00;;;;;;;3.13;100.00;100573.53;5109808;22;20264;-78
2022/01/02 04:32:20;;;;;;;12.17;7.37;;;;;;;3.13;100.00;100562.19;5094567;22;20201;-79
2022/01/02 04:34:46;;;;;;;13.43;6.70;;;;;;;3.13;100.00;100549.03;5106940;22;20213;-81
2022/01/02 04:37:13;;;;;;;15.17;6.77;;;;;;;3.13;100.00;100546.41;5104806;22;20216;-79
2022/01/02 04:39:40;;;;;;;14.73;6.47;;;;;;;3.10;100.00;100533.47;5116195;22;20210;-79
2022/01/02 04:42:07;;;;;;;14.90;7.40;;;;;;;3.07;100.00;100528.41;5123596;22;20204;-82
2022/01/02 04:44:34;;;;;;;16.13;6.87;;;;;;;3.06;100.00;100524.06;5102710;22;20380;-82
2022/01/02 04:47:01;;;;;;;15.37;6.97;;;;;;;3.11;100.00;100514.09;5094045;22;20351;-82
2022/01/02 04:49:28;;;;;;;18.63;7.37;;;;;;;3.07;100.00;100507.38;5115955;22;21553;-80
2022/01/02 04:51:55;;;;;;;14.50;6.77;;;;;;;3.09;100.00;100502.84;5097718;22;20270;-80
2022/01/02 04:54:22;;;;;;;15.90;7.03;;;;;;;3.07;100.00;100512.63;5108806;22;21227;-82
2022/01/02 04:56:49;;;;;;;21.40;7.70;;;;;;;3.07;100.00;100495.06;5088531;22;20209;-78
2022/01/02 04:59:16;;;;;;;13.13;6.60;;;;;;;3.08;100.00;100501.16;5125377;22;21035;-78
2022/01/02 05:01:42;;;;;;;17.13;6.30;;;;;;;3.12;100.00;100497.41;5088383;23;20725;-79
2022/01/02 05:04:09;;;;;;;14.63;7.10;;;;;;;3.13;100.00;100491.19;5112289;22;20766;-78
2022/01/02 05:06:36;;;;;;;17.17;7.50;;;;;;;3.15;100.00;100499.84;5120585;22;20206;-78
2022/01/02 05:09:03;;;;;;;17.57;6.83;;;;;;;3.16;100.00;100480.47;5127026;22;20743;-78
2022/01/02 05:11:30;;;;;;;14.00;6.53;;;;;;;3.18;100.00;100497.00;5125861;22;20209;-81
2022/01/02 05:13:56;;;;;;;15.53;6.73;;;;;;;3.27;100.00;100503.47;5102979;22;21986;-80
2022/01/02 05:16:23;;;;;;;13.73;7.07;;;;;;;3.32;100.00;100504.88;5139237;22;20216;-81
2022/01/02 05:18:50;;;;;;;18.37;7.40;;;;;;;3.36;100.00;100506.38;5101267;22;20208;-78
2022/01/02 05:21:16;;;;;;;17.37;7.73;;;;;;;3.34;100.00;100495.09;5119623;22;20213;-80
2022/01/02 05:23:43;;;;;;;17.57;6.77;;;;;;;3.37;100.00;100484.41;5081882;23;20712;-79
2022/01/02 05:26:10;;;;;;;18.40;7.90;;;;;;;3.36;100.00;100480.06;5105103;22;20205;-79
2022/01/02 05:28:36;;;;;;;15.77;7.23;;;;;;;3.33;100.00;100477.66;5101174;22;21263;-80
2022/01/02 05:31:03;;;;;;;14.87;7.17;;;;;;;3.40;100.00;100469.38;5075724;22;21004;-80
2022/01/02 05:33:30;;;;;;;18.17;7.93;;;;;;;3.36;100.00;100461.66;5092705;22;20442;-80
2022/01/02 05:35:56;;;;;;;15.90;7.50;;;;;;;3.35;100.00;100448.63;5100338;22;20691;-82
2022/01/02 05:38:23;;;;;;;16.10;7.73;;;;;;;3.33;100.00;100448.72;5121314;22;20946;-80
2022/01/02 05:40:51;;;;;;;17.97;7.37;;;;;;;3.39;100.00;100450.09;5085278;23;20544;-79
2022/01/02 05:43:18;;;;;;;16.23;7.30;;;;;;;3.35;100.00;100438.94;5114056;22;21234;-80
2022/01/02 05:45:45;;;;;;;21.97;8.57;;;;;;;3.36;100.00;100445.88;5085453;22;21769;-80
2022/01/02 05:48:11;;;;;;;16.87;8.93;;;;;;;3.32;100.00;100444.38;5090199;22;20312;-79
2022/01/02 05:50:38;;;;;;;20.50;8.33;;;;;;;3.34;100.00;100431.97;5106676;22;20327;-80
2022/01/02 05:53:05;;;;;;;22.57;9.17;;;;;;;3.43;100.00;100419.19;5107164;22;20205;-80
2022/01/02 05:55:33;;;;;;;17.73;8.47;;;;;;;3.38;100.00;100399.28;5093809;22;20230;-81
2022/01/02 05:58:00;;;;;;;23.23;9.37;;;;;;;3.35;100.00;100396.84;5096734;22;20285;-79
2022/01/02 06:00:27;;;;;;;23.83;9.77;;;;;;;3.36;100.00;100408.22;5107409;22;20208;-80
2022/01/02 06:02:54;;;;;;;24.00;10.43;;;;;;;3.33;100.00;100403.16;5089813;22;20202;-81
2022/01/02 06:05:20;;;;;;;26.63;11.00;;;;;;;3.33;100.00;100404.00;5089909;22;20264;-78
2022/01/02 06:07:47;;;;;;;28.20;11.67;;;;;;;3.35;100.00;100407.38;5087507;22;20639;-80
2022/01/02 06:10:13;;;;;;;26.67;10.73;;;;;;;3.41;100.00;100407.91;5103356;22;20212;-79
2022/01/02 06:12:40;;;;;;;33.47;12.70;;;;;;;3.41;100.00;100402.66;5122047;22;20567;-82
2022/01/02 06:15:07;;;;;;;28.57;12.40;;;;;;;3.43;100.00;100400.78;5126264;22;20620;-77
2022/01/02 06:17:34;;;;;;;35.43;13.70;;;;;;;3.36;100.00;100397.69;5073976;22;20345;-79
2022/01/02 06:20:00;;;;;;;29.00;13.87;;;;;;;3.37;100.00;100389.72;5104274;22;20205;-80
2022/01/02 06:22:27;;;;;;;38.50;16.17;;;;;;;3.38;100.00;100380.88;5091742;22;20205;-81
2022/01/02 06:24:54;;;;;;;38.83;15.83;;;;;;;3.38;100.00;100390.56;5126461;22;20746;-80
2022/01/02 06:27:21;;;;;;;42.57;16.23;;;;;;;3.36;100.00;100393.28;5074634;23;21275;-78
2022/01/02 06:29:48;;;;;;;37.80;15.53;;;;;;;3.42;100.00;100385.91;5086367;22;20214;-78
2022/01/02 06:32:14;;;;;;;42.07;17.53;;;;;;;3.48;100.00;100386.38;5116241;22;20962;-78
2022/01/02 06:34:44;;;;;;;43.40;17.97;;;;;;;3.44;100.00;100381.41;5104763;22;20262;-80
2022/01/02 06:37:10;;;;;;;45.03;18.33;;;;;;;3.46;100.00;100376.91;5107320;22;20267;-78
2022/01/02 06:39:37;;;;;;;46.67;19.57;;;;;;;3.48;100.00;100369.75;5087300;22;20206;-78
2022/01/02 06:42:05;;;;;;;40.80;17.60;;;;;;;3.49;100.00;100351.25;5094824;22;20304;-79
2022/01/02 06:44:32;;;;;;;45.80;18.90;;;;;;;3.47;100.00;100347.03;5109574;22;20640;-79
2022/01/02 06:46:58;;;;;;;49.43;19.37;;;;;;;3.46;100.00;100350.59;5098827;22;20253;-79
2022/01/02 06:49:25;;;;;;;47.17;17.63;;;;;;;3.49;100.00;100347.75;5106765;22;20202;-79
2022/01/02 06:51:52;;;;;;;41.13;17.73;;;;;;;3.44;100.00;100336.69;5073448;23;20203;-82
2022/01/02 06:54:18;;;;;;;41.77;17.83;;;;;;;3.51;100.00;100341.47;5114636;22;20285;-80
2022/01/02 06:56:45;;;;;;;43.50;18.23;;;;;;;3.55;100.00;100332.41;5099421;22;20459;-79
2022/01/02 06:59:11;;;;;;;51.60;20.13;;;;;;;3.52;100.00;100329.97;5096639;23;20210;-78
2022/01/02 07:01:38;;;;;;;49.47;18.63;;;;;;;3.51;100.00;100325.69;5168802;22;20207;-82
2022/01/02 07:04:05;;;;;;;60.90;20.37;;;;;;;3.43;100.00;100321.88;5134195;22;20256;-79
2022/01/02 07:06:32;;;;;;;54.33;19.83;;;;;;;3.47;100.00;100320.72;5107069;22;20317;-80
2022/01/02 07:08:58;;;;;;;51.00;20.13;;;;;;;3.52;100.00;100329.97;5117576;22;20209;-78
2022/01/02 07:11:25;;;;;;;59.57;21.43;;;;;;;3.53;100.00;100328.19;5098507;22;20214;-78
2022/01/02 07:13:52;;;;;;;67.47;20.73;;;;;;;3.53;100.00;100336.91;5127443;22;20197;-77
2022/01/02 07:16:18;;;;;;;56.73;21.37;;;;;;;3.56;100.00;100335.91;5161820;22;20206;-79
2022/01/02 07:18:45;;;;;;;64.97;23.63;;;;;;;3.56;100.00;100323.56;5182492;22;20225;-77
2022/01/02 07:21:13;;;;;;;68.83;22.27;;;;;;;3.54;100.00;100322.00;5309618;22;20372;-77
2022/01/02 07:23:39;;;;;;;63.27;23.00;;;;;;;3.56;100.00;100320.13;5104646;22;21766;-76
2022/01/02 07:26:07;;;;;;;65.93;21.00;;;;;;;3.61;100.00;100318.00;5102882;22;20354;-79
2022/01/02 07:28:34;;;;;;;70.77;22.57;;;;;;;3.62;100.00;100308.31;5170363;22;20740;-76
2022/01/02 07:31:01;;;;;;;68.90;24.10;;;;;;;3.66;100.00;100294.84;5135478;22;21875;-80
2022/01/02 07:33:28;;;;;;;70.93;22.43;;;;;;;3.69;100.00;100294.63;5137983;22;20266;-80
2022/01/02 07:35:54;;;;;;;75.27;23.57;;;;;;;3.73;100.00;100296.13;5128302;22;20696;-78
2022/01/02 07:38:30;;;;;;;66.57;23.07;;;;;;;3.80;100.00;100292.13;5123366;22;20213;-79
2022/01/02 07:40:57;;;;;;;86.73;24.60;;;;;;;3.73;100.00;100277.69;5127088;22;20201;-77
2022/01/02 07:43:23;;;;;;;87.67;22.13;;;;;;;3.73;100.00;100275.06;5096879;22;22030;-81
2022/01/02 07:45:50;;;;;;;70.90;23.17;;;;;;;3.79;100.00;100279.91;5116802;22;25567;-80
2022/01/02 07:48:17;;;;;;;84.63;24.47;;;;;;;3.80;100.00;100271.06;5106453;22;22796;-78
2022/01/02 07:50:43;;;;;;;85.00;23.63;;;;;;;3.88;100.00;100269.69;5120378;22;20257;-79
2022/01/02 07:53:10;;;;;;;64.30;23.17;;;;;;;3.92;100.00;100252.75;5110870;22;20288;-79
2022/01/02 07:55:37;;;;;;;71.93;23.93;;;;;;;3.97;100.00;100243.56;5089338;22;20272;-80
2022/01/02 07:58:03;;;;;;;71.60;23.27;;;;;;;3.95;100.00;100236.72;5121388;22;21821;-81
2022/01/02 08:00:30;;;;;;;74.60;23.73;;;;;;;4.00;100.00;100234.59;5096025;22;20600;-81
2022/01/02 08:02:57;;;;;;;79.70;23.23;;;;;;;4.01;100.00;100231.03;5097143;23;20245;-78
2022/01/02 08:05:24;;;;;;;73.17;22.17;;;;;;;4.04;100.00;100220.28;5140743;22;20290;-80
2022/01/02 08:07:51;;;;;;;82.50;24.03;;;;;;;4.09;100.00;100212.88;5113442;23;20363;-80
2022/01/02 08:10:17;;;;;;;72.97;23.93;;;;;;;4.13;100.00;100209.09;5092517;22;20205;-80
2022/01/02 08:12:46;;;;;;;79.40;25.33;;;;;;;4.20;100.00;100212.13;5139116;22;22562;-79
2022/01/02 08:15:14;;;;;;;79.00;24.97;;;;;;;4.36;100.00;100214.53;5108376;22;20291;-82
2022/01/02 08:17:41;;;;;;;78.00;24.50;;;;;;;4.39;100.00;100209.03;5130066;22;20265;-78
2022/01/02 08:20:09;;;;;;;75.63;23.93;;;;;;;4.45;100.00;100213.84;5099808;22;20209;-79
2022/01/02 08:22:35;;;;;;;70.63;23.33;;;;;;;4.50;100.00;100210.88;5084310;22;20209;-82
2022/01/02 08:25:03;;;;;;;77.30;23.93;;;;;;;4.57;100.00;100210.31;5149210;23;20252;-81
2022/01/02 08:27:30;;;;;;;73.07;24.07;;;;;;;4.59;100.00;100200.50;5083632;22;20710;-84
2022/01/02 08:29:57;;;;;;;78.57;25.20;;;;;;;4.64;100.00;100218.63;5178178;23;20468;-89
2022/01/02 08:32:24;;;;;;;75.03;24.87;;;;;;;4.75;100.00;100225.72;5089199;23;20199;-81
2022/01/02 08:34:52;;;;;;;75.93;25.03;;;;;;;4.79;100.00;100208.75;5127970;22;21298;-82
2022/01/02 08:37:18;;;;;;;75.70;23.47;;;;;;;4.87;100.00;100195.84;5118154;23;20269;-81
2022/01/02 08:39:45;;;;;;;66.33;23.43;;;;;;;4.96;100.00;100203.03;5164880;22;20211;-83
2022/01/02 08:42:13;;;;;;;71.37;24.63;;;;;;;5.04;100.00;100199.84;5136096;23;20342;-83
2022/01/02 08:44:42;;;;;;;69.47;23.23;;;;;;;5.12;100.00;100194.00;5164708;22;20243;-81
2022/01/02 08:47:09;;;;;;;69.17;23.13;;;;;;;5.17;100.00;100202.38;5188735;22;20901;-80
2022/01/02 08:49:36;;;;;;;74.27;23.47;;;;;;;5.21;100.00;100209.94;5126099;22;20225;-82
2022/01/02 08:52:03;;;;;;;64.37;23.93;;;;;;;5.28;100.00;100192.69;5144023;22;21120;-81
2022/01/02 08:54:30;;;;;;;76.43;23.87;;;;;;;5.26;100.00;100186.69;5088933;22;20273;-83
2022/01/02 08:56:56;;;;;;;65.83;23.77;;;;;;;5.36;100.00;100183.34;5082892;22;20489;-82
2022/01/02 08:59:27;;;;;;;61.03;21.73;;;;;;;5.43;100.00;100185.44;5104806;22;20237;-80
2022/01/02 09:01:55;;;;;;;71.77;23.90;;;;;;;5.45;100.00;100186.13;5116755;22;20206;-82
2022/01/02 09:04:21;;;;;;;78.80;24.90;;;;;;;5.39;100.00;100178.69;5105003;22;20202;-82
2022/01/02 09:06:48;;;;;;;67.43;23.67;;;;;;;5.48;100.00;100161.31;5120551;22;22740;-84
2022/01/02 09:09:15;;;;;;;68.20;23.40;;;;;;;5.52;100.00;100151.34;5104533;22;20293;-79
2022/01/02 09:11:41;;;;;;;70.00;23.10;;;;;;;5.50;100.00;100139.13;5116690;22;20198;-81
2022/01/02 09:14:08;;;;;;;61.97;21.60;;;;;;;5.60;100.00;100143.69;5106773;22;20248;-81
2022/01/02 09:16:35;;;;;;;65.77;23.00;;;;;;;5.67;100.00;100131.69;5105258;22;20807;-81
2022/01/02 09:19:02;;;;;;;62.70;21.63;;;;;;;5.69;100.00;100125.31;5125282;22;21946;-80
2022/01/02 09:21:29;;;;;;;59.63;22.23;;;;;;;5.79;100.00;100128.06;5123965;22;20645;-80
2022/01/02 09:23:55;;;;;;;55.83;21.87;;;;;;;5.82;100.00;100127.81;5094639;22;20312;-79
2022/01/02 09:26:22;;;;;;;53.80;21.80;;;;;;;5.88;100.00;100131.78;5121182;22;20202;-78
2022/01/02 09:28:48;;;;;;;61.33;21.30;;;;;;;5.98;100.00;100116.06;5087944;23;21610;-79
2022/01/02 09:31:15;;;;;;;56.33;21.10;;;;;;;6.01;100.00;100110.53;5142888;22;20267;-80
2022/01/02 09:33:42;;;;;;;56.93;21.23;;;;;;;6.04;100.00;100107.63;5102900;22;20408;-79
2022/01/02 09:36:09;;;;;;;53.23;20.83;;;;;;;6.11;100.00;100100.88;5099024;22;20198;-79
2022/01/02 09:38:36;;;;;;;51.83;20.50;;;;;;;6.14;100.00;100090.09;5082491;23;20281;-77
2022/01/02 09:41:04;;;;;;;52.40;19.83;;;;;;;6.23;100.00;100092.00;5092923;23;21507;-78
2022/01/02 09:43:31;;;;;;;52.77;20.70;;;;;;;6.25;100.00;100083.91;5081417;23;20210;-79
2022/01/02 09:45:59;;;;;;;50.23;20.47;;;;;;;6.26;100.00;100088.25;5079764;22;20432;-79
2022/01/02 09:48:27;;;;;;;49.67;20.83;;;;;;;6.36;100.00;100068.03;5100038;22;20616;-82
2022/01/02 09:50:54;;;;;;;44.33;19.47;;;;;;;6.39;100.00;100061.63;5054219;23;23340;-80
2022/01/02 09:53:20;;;;;;;49.53;19.20;;;;;;;6.41;100.00;100052.63;5098039;23;20210;-79
2022/01/02 09:55:52;;;;;;;49.60;20.63;;;;;;;6.41;100.00;100038.56;5080794;23;20206;-79
2022/01/02 09:58:18;;;;;;;47.17;19.33;;;;;;;6.42;100.00;100021.75;5073286;23;20214;-80
2022/01/02 10:00:46;;;;;;;51.23;19.97;;;;;;;6.48;100.00;100005.38;5094719;22;20686;-78
2022/01/02 10:03:14;;;;;;;49.30;19.33;;;;;;;6.51;100.00;100019.19;5111151;22;20226;-77
2022/01/02 10:05:52;;;;;;;47.57;19.03;;;;;;;6.57;100.00;100012.53;5078033;23;22921;-78
2022/01/02 10:08:30;;;;;;;53.93;20.87;;;;;;;6.54;100.00;99994.28;5082490;23;21189;-79
2022/01/02 10:11:11;;;;;;;45.57;18.80;;;;;;;6.58;100.00;99974.56;5070645;23;20210;-81
2022/01/02 10:13:52;;;;;;;51.93;20.37;;;;;;;6.58;100.00;99961.34;5073709;23;20262;-81
2022/01/02 10:16:35;;;;;;;51.33;19.93;;;;;;;6.69;100.00;99960.41;5102020;23;20272;-81
2022/01/02 10:19:21;;;;;;;48.97;20.10;;;;;;;6.69;100.00;99949.84;5076644;23;20289;-82
2022/01/02 10:21:59;;;;;;;50.13;19.77;;;;;;;6.66;100.00;99927.13;5071594;23;20206;-80
2022/01/02 10:24:47;;;;;;;55.23;21.23;;;;;;;6.65;100.00;99914.91;5076053;23;20209;-80
2022/01/02 10:27:16;;;;;;;49.80;20.77;;;;;;;6.67;100.00;99915.63;5093282;23;20286;-76
2022/01/02 10:29:44;;;;;;;43.60;20.13;;;;;;;6.78;100.00;99904.09;5083465;23;20265;-78
2022/01/02 10:32:26;;;;;;;60.13;23.80;;;;;;;6.84;100.00;99908.84;5114564;23;20202;-77
2022/01/02 10:34:59;;;;;;;55.10;21.43;;;;;;;6.85;100.00;99913.16;5121546;22;22193;-78
2022/01/02 10:37:26;;;;;;;59.23;21.43;;;;;;;6.84;100.00;99926.53;5087515;23;20284;-77
2022/01/02 10:39:53;;;;;;;52.40;21.43;;;;;;;6.88;100.00;99919.97;5087699;22;25430;-75
2022/01/02 10:42:20;;;;;;;58.27;24.33;;;;;;;6.90;100.00;99913.59;5105627;22;20201;-77
2022/01/02 10:44:46;;;;;;;51.40;22.67;;;;;;;6.96;100.00;99899.00;5096036;22;20777;-80
2022/01/02 10:47:21;;;;;;;55.50;22.57;;;;;;;7.00;100.00;99900.41;5111290;22;20611;-80
2022/01/02 10:49:59;;;;;;;60.00;23.73;;;;;;;7.02;100.00;99892.31;5129656;22;20208;-76
2022/01/02 10:52:26;;;;;;;49.60;22.40;;;;;;;7.11;100.00;99888.88;5125480;22;20525;-75
2022/01/02 10:54:53;;;;;;;52.47;22.70;;;;;;;7.11;100.00;99873.81;5124537;22;20564;-76
2022/01/02 10:57:20;;;;;;;51.53;22.67;;;;;;;7.17;100.00;99878.56;5076630;22;20612;-77
2022/01/02 10:59:47;;;;;;;50.50;22.80;;;;;;;7.18;100.00;99859.06;5135088;22;20580;-77
2022/01/02 11:02:15;;;;;;;50.70;21.70;;;;;;;7.18;100.00;99853.78;5116633;22;21764;-76
2022/01/02 11:04:52;;;;;;;52.43;23.47;;;;;;;7.20;100.00;99864.22;5096158;22;21294;-75
2022/01/02 11:07:22;;;;;;;51.37;23.23;;;;;;;7.26;100.00;99852.25;5099395;22;20698;-76
2022/01/02 11:09:51;;;;;;;54.03;23.80;;;;;;;7.26;100.00;99839.88;5075123;22;20210;-76
2022/01/02 11:12:22;;;;;;;54.23;23.90;;;;;;;7.30;100.00;99838.59;5116367;22;22275;-79
2022/01/02 11:14:50;;;;;;;59.47;24.57;;;;;;;7.35;100.00;99838.19;5103456;22;20248;-76
2022/01/02 11:17:17;;;;;;;51.17;22.47;;;;;;;7.41;100.00;99829.69;5106872;23;21595;-76
2022/01/02 11:19:44;;;;;;;47.77;23.33;;;;;;;7.40;100.00;99826.22;5148341;22;20206;-76
2022/01/02 11:22:14;;;;;;;53.10;23.33;;;;;;;7.37;100.00;99841.53;5096153;22;20202;-77
2022/01/02 11:24:50;;;;;;;52.60;22.97;;;;;;;7.48;100.00;99833.47;5106158;22;21010;-77
2022/01/02 11:27:23;;;;;;;47.67;21.43;;;;;;;7.57;100.00;99806.16;5096117;22;22067;-80
2022/01/02 11:29:50;;;;;;;58.00;24.43;;;;;;;7.67;100.00;99810.59;5077379;22;20202;-78